sensor_id;sensor_type;location;lat;lon;timestamp;temperature;humidity
68385;DHT22;55336;43.062;25.626;2024-01-30T00:01:15;0.70;99.90
68385;DHT22;55336;43.062;25.626;2024-01-30T00:03:40;0.70;99.90
68385;DHT22;55336;43.062;25.626;2024-01-30T00:06:07;0.70;99.90
68385;DHT22;55336;43.062;25.626;2024-01-30T00:08:33;0.70;99.90
68385;DHT22;55336;43.062;25.626;2024-01-30T00:10:58;0.70;99.90
68385;DHT22;55336;43.062;25.626;2024-01-30T00:13:24;0.70;99.90
68385;DHT22;55336;43.062;25.626;2024-01-30T00:15:50;0.70;99.90
68385;DHT22;55336;43.062;25.626;2024-01-30T00:18:16;0.80;99.90
68385;DHT22;55336;43.062;25.626;2024-01-30T00:20:41;0.70;99.90
68385;DHT22;55336;43.062;25.626;2024-01-30T00:23:08;0.70;99.90
68385;DHT22;55336;43.062;25.626;2024-01-30T00:25:34;0.70;99.90
68385;DHT22;55336;43.062;25.626;2024-01-30T00:28:00;0.70;99.90
68385;DHT22;55336;43.062;25.626;2024-01-30T00:30:25;0.70;99.90
68385;DHT22;55336;43.062;25.626;2024-01-30T00:32:51;0.60;99.90
68385;DHT22;55336;43.062;25.626;2024-01-30T00:35:17;0.70;99.90
68385;DHT22;55336;43.062;25.626;2024-01-30T00:37:43;0.60;99.90
68385;DHT22;55336;43.062;25.626;2024-01-30T00:40:08;0.60;99.90
68385;DHT22;55336;43.062;25.626;2024-01-30T00:42:39;0.60;99.90
68385;DHT22;55336;43.062;25.626;2024-01-30T00:45:04;0.60;99.90
68385;DHT22;55336;43.062;25.626;2024-01-30T00:47:31;0.60;99.90
68385;DHT22;55336;43.062;25.626;2024-01-30T00:49:58;0.60;99.90
68385;DHT22;55336;43.062;25.626;2024-01-30T00:52:24;0.60;99.90
68385;DHT22;55336;43.062;25.626;2024-01-30T00:54:49;0.60;99.90
68385;DHT22;55336;43.062;25.626;2024-01-30T00:57:15;0.60;99.90
68385;DHT22;55336;43.062;25.626;2024-01-30T00:59:41;0.60;99.90
68385;DHT22;55336;43.062;25.626;2024-01-30T01:02:06;0.60;99.90
68385;DHT22;55336;43.062;25.626;2024-01-30T01:04:32;0.60;99.90
68385;DHT22;55336;43.062;25.626;2024-01-30T01:06:58;0.60;99.90
68385;DHT22;55336;43.062;25.626;2024-01-30T01:09:24;0.60;99.90
68385;DHT22;55336;43.062;25.626;2024-01-30T01:11:49;0.70;99.90
68385;DHT22;55336;43.062;25.626;2024-01-30T01:14:15;0.70;99.90
68385;DHT22;55336;43.062;25.626;2024-01-30T01:16:41;0.70;99.90
68385;DHT22;55336;43.062;25.626;2024-01-30T01:19:06;0.70;99.90
68385;DHT22;55336;43.062;25.626;2024-01-30T01:21:32;0.70;99.90
68385;DHT22;55336;43.062;25.626;2024-01-30T01:23:58;0.80;99.90
68385;DHT22;55336;43.062;25.626;2024-01-30T01:26:23;0.70;99.90
68385;DHT22;55336;43.062;25.626;2024-01-30T01:28:49;0.80;99.90
68385;DHT22;55336;43.062;25.626;2024-01-30T01:31:15;0.70;99.90
68385;DHT22;55336;43.062;25.626;2024-01-30T01:33:43;0.80;99.90
68385;DHT22;55336;43.062;25.626;2024-01-30T01:36:08;0.80;99.90
68385;DHT22;55336;43.062;25.626;2024-01-30T01:38:34;0.80;99.90
68385;DHT22;55336;43.062;25.626;2024-01-30T01:40:59;0.80;99.90
68385;DHT22;55336;43.062;25.626;2024-01-30T01:43:25;0.80;99.90
68385;DHT22;55336;43.062;25.626;2024-01-30T01:45:51;0.80;99.90
68385;DHT22;55336;43.062;25.626;2024-01-30T01:48:17;0.80;99.90
68385;DHT22;55336;43.062;25.626;2024-01-30T01:50:42;0.80;99.90
68385;DHT22;55336;43.062;25.626;2024-01-30T01:53:08;0.80;99.90
68385;DHT22;55336;43.062;25.626;2024-01-30T01:55:34;0.80;99.90
68385;DHT22;55336;43.062;25.626;2024-01-30T01:58:01;0.80;99.90
68385;DHT22;55336;43.062;25.626;2024-01-30T02:00:26;0.80;99.90
68385;DHT22;55336;43.062;25.626;2024-01-30T02:02:53;0.80;99.90
68385;DHT22;55336;43.062;25.626;2024-01-30T02:05:19;0.80;99.90
68385;DHT22;55336;43.062;25.626;2024-01-30T02:07:46;0.80;99.90
68385;DHT22;55336;43.062;25.626;2024-01-30T02:10:12;0.80;99.90
68385;DHT22;55336;43.062;25.626;2024-01-30T02:12:38;0.80;99.90
68385;DHT22;55336;43.062;25.626;2024-01-30T02:15:05;0.80;99.90
68385;DHT22;55336;43.062;25.626;2024-01-30T02:17:32;0.80;99.90
68385;DHT22;55336;43.062;25.626;2024-01-30T02:19:58;0.80;99.90
68385;DHT22;55336;43.062;25.626;2024-01-30T02:22:24;0.80;99.90
68385;DHT22;55336;43.062;25.626;2024-01-30T02:24:50;0.80;99.90
68385;DHT22;55336;43.062;25.626;2024-01-30T02:27:15;0.80;99.90
68385;DHT22;55336;43.062;25.626;2024-01-30T02:29:41;0.80;99.90
68385;DHT22;55336;43.062;25.626;2024-01-30T02:32:07;0.80;99.90
68385;DHT22;55336;43.062;25.626;2024-01-30T02:34:33;0.80;99.90
68385;DHT22;55336;43.062;25.626;2024-01-30T02:36:58;0.80;99.90
68385;DHT22;55336;43.062;25.626;2024-01-30T02:39:24;0.80;99.90
68385;DHT22;55336;43.062;25.626;2024-01-30T02:41:50;0.80;99.90
68385;DHT22;55336;43.062;25.626;2024-01-30T02:44:15;0.80;99.90
68385;DHT22;55336;43.062;25.626;2024-01-30T02:46:41;0.80;99.90
68385;DHT22;55336;43.062;25.626;2024-01-30T02:49:07;0.80;99.90
68385;DHT22;55336;43.062;25.626;2024-01-30T02:51:32;0.80;99.90
68385;DHT22;55336;43.062;25.626;2024-01-30T02:53:59;0.70;99.90
68385;DHT22;55336;43.062;25.626;2024-01-30T02:56:24;0.80;99.90
68385;DHT22;55336;43.062;25.626;2024-01-30T02:58:50;0.80;99.90
68385;DHT22;55336;43.062;25.626;2024-01-30T03:01:16;0.80;99.90
68385;DHT22;55336;43.062;25.626;2024-01-30T03:03:41;0.70;99.90
68385;DHT22;55336;43.062;25.626;2024-01-30T03:06:08;0.70;99.90
68385;DHT22;55336;43.062;25.626;2024-01-30T03:08:34;0.70;99.90
68385;DHT22;55336;43.062;25.626;2024-01-30T03:11:00;0.70;99.90
68385;DHT22;55336;43.062;25.626;2024-01-30T03:13:26;0.70;99.90
68385;DHT22;55336;43.062;25.626;2024-01-30T03:15:52;0.70;99.90
68385;DHT22;55336;43.062;25.626;2024-01-30T03:18:18;0.70;99.90
68385;DHT22;55336;43.062;25.626;2024-01-30T03:20:43;0.70;99.90
68385;DHT22;55336;43.062;25.626;2024-01-30T03:23:09;0.70;99.90
68385;DHT22;55336;43.062;25.626;2024-01-30T03:25:35;0.70;99.90
68385;DHT22;55336;43.062;25.626;2024-01-30T03:28:01;0.70;99.90
68385;DHT22;55336;43.062;25.626;2024-01-30T03:30:27;0.70;99.90
68385;DHT22;55336;43.062;25.626;2024-01-30T03:32:52;0.70;99.90
68385;DHT22;55336;43.062;25.626;2024-01-30T03:35:18;0.60;99.90
68385;DHT22;55336;43.062;25.626;2024-01-30T03:37:44;0.70;99.90
68385;DHT22;55336;43.062;25.626;2024-01-30T03:40:10;0.70;99.90
68385;DHT22;55336;43.062;25.626;2024-01-30T03:42:35;0.70;99.90
68385;DHT22;55336;43.062;25.626;2024-01-30T03:45:01;0.70;99.90
68385;DHT22;55336;43.062;25.626;2024-01-30T03:47:27;0.70;99.90
68385;DHT22;55336;43.062;25.626;2024-01-30T03:49:53;0.70;99.90
68385;DHT22;55336;43.062;25.626;2024-01-30T03:52:19;0.70;99.90
68385;DHT22;55336;43.062;25.626;2024-01-30T03:54:44;0.70;99.90
68385;DHT22;55336;43.062;25.626;2024-01-30T03:57:10;0.70;99.90
68385;DHT22;55336;43.062;25.626;2024-01-30T03:59:36;0.70;99.90
68385;DHT22;55336;43.062;25.626;2024-01-30T04:02:02;0.70;99.90
68385;DHT22;55336;43.062;25.626;2024-01-30T04:04:28;0.70;99.90
68385;DHT22;55336;43.062;25.626;2024-01-30T04:06:54;0.80;99.90
68385;DHT22;55336;43.062;25.626;2024-01-30T04:09:19;0.70;99.90
68385;DHT22;55336;43.062;25.626;2024-01-30T04:11:45;0.70;99.90
68385;DHT22;55336;43.062;25.626;2024-01-30T04:14:11;0.70;99.90
68385;DHT22;55336;43.062;25.626;2024-01-30T04:16:36;0.80;99.90
68385;DHT22;55336;43.062;25.626;2024-01-30T04:19:02;0.70;99.90
68385;DHT22;55336;43.062;25.626;2024-01-30T04:21:28;0.70;99.90
68385;DHT22;55336;43.062;25.626;2024-01-30T04:23:53;0.70;99.90
68385;DHT22;55336;43.062;25.626;2024-01-30T04:26:19;0.70;99.90
68385;DHT22;55336;43.062;25.626;2024-01-30T04:28:45;0.70;99.90
68385;DHT22;55336;43.062;25.626;2024-01-30T04:31:11;0.70;99.90
68385;DHT22;55336;43.062;25.626;2024-01-30T04:33:36;0.70;99.90
68385;DHT22;55336;43.062;25.626;2024-01-30T04:36:02;0.70;99.90
68385;DHT22;55336;43.062;25.626;2024-01-30T04:38:29;0.70;99.90
68385;DHT22;55336;43.062;25.626;2024-01-30T04:40:55;0.70;99.90
68385;DHT22;55336;43.062;25.626;2024-01-30T04:43:21;0.70;99.90
68385;DHT22;55336;43.062;25.626;2024-01-30T04:45:47;0.70;99.90
68385;DHT22;55336;43.062;25.626;2024-01-30T04:48:13;0.60;99.90
68385;DHT22;55336;43.062;25.626;2024-01-30T04:50:39;0.60;99.90
68385;DHT22;55336;43.062;25.626;2024-01-30T04:53:05;0.60;99.90
68385;DHT22;55336;43.062;25.626;2024-01-30T04:55:30;0.60;99.90
68385;DHT22;55336;43.062;25.626;2024-01-30T04:57:56;0.60;99.90
68385;DHT22;55336;43.062;25.626;2024-01-30T05:00:22;0.60;99.90
68385;DHT22;55336;43.062;25.626;2024-01-30T05:02:47;0.50;99.90
68385;DHT22;55336;43.062;25.626;2024-01-30T05:05:13;0.50;99.90
68385;DHT22;55336;43.062;25.626;2024-01-30T05:07:40;0.50;99.90
68385;DHT22;55336;43.062;25.626;2024-01-30T05:10:06;0.50;99.90
68385;DHT22;55336;43.062;25.626;2024-01-30T05:12:32;0.50;99.90
68385;DHT22;55336;43.062;25.626;2024-01-30T05:14:58;0.50;99.90
68385;DHT22;55336;43.062;25.626;2024-01-30T05:17:23;0.50;99.90
68385;DHT22;55336;43.062;25.626;2024-01-30T05:19:49;0.50;99.90
68385;DHT22;55336;43.062;25.626;2024-01-30T05:22:15;0.50;99.90
68385;DHT22;55336;43.062;25.626;2024-01-30T05:24:41;0.50;99.90
68385;DHT22;55336;43.062;25.626;2024-01-30T05:27:07;0.40;99.90
68385;DHT22;55336;43.062;25.626;2024-01-30T05:29:33;0.50;99.90
68385;DHT22;55336;43.062;25.626;2024-01-30T05:31:59;0.50;99.90
68385;DHT22;55336;43.062;25.626;2024-01-30T05:34:25;0.40;99.90
68385;DHT22;55336;43.062;25.626;2024-01-30T05:36:50;0.40;99.90
68385;DHT22;55336;43.062;25.626;2024-01-30T05:39:16;0.50;99.90
68385;DHT22;55336;43.062;25.626;2024-01-30T05:41:42;0.40;99.90
68385;DHT22;55336;43.062;25.626;2024-01-30T05:44:07;0.40;99.90
68385;DHT22;55336;43.062;25.626;2024-01-30T05:46:33;0.40;99.90
68385;DHT22;55336;43.062;25.626;2024-01-30T05:48:59;0.40;99.90
68385;DHT22;55336;43.062;25.626;2024-01-30T05:51:25;0.40;99.90
68385;DHT22;55336;43.062;25.626;2024-01-30T05:53:50;0.40;99.90
68385;DHT22;55336;43.062;25.626;2024-01-30T05:56:16;0.40;99.90
68385;DHT22;55336;43.062;25.626;2024-01-30T05:58:42;0.40;99.90
68385;DHT22;55336;43.062;25.626;2024-01-30T06:01:08;0.40;99.90
68385;DHT22;55336;43.062;25.626;2024-01-30T06:03:34;0.40;99.90
68385;DHT22;55336;43.062;25.626;2024-01-30T06:06:00;0.50;99.90
68385;DHT22;55336;43.062;25.626;2024-01-30T06:08:26;0.50;99.90
68385;DHT22;55336;43.062;25.626;2024-01-30T06:10:52;0.50;99.90
68385;DHT22;55336;43.062;25.626;2024-01-30T06:13:18;0.50;99.90
68385;DHT22;55336;43.062;25.626;2024-01-30T06:15:43;0.50;99.90
68385;DHT22;55336;43.062;25.626;2024-01-30T06:18:09;0.50;99.90
68385;DHT22;55336;43.062;25.626;2024-01-30T06:20:35;0.50;99.90
68385;DHT22;55336;43.062;25.626;2024-01-30T06:23:01;0.50;99.90
68385;DHT22;55336;43.062;25.626;2024-01-30T06:25:26;0.60;99.90
68385;DHT22;55336;43.062;25.626;2024-01-30T06:27:52;0.60;99.90
68385;DHT22;55336;43.062;25.626;2024-01-30T06:30:18;0.60;99.90
68385;DHT22;55336;43.062;25.626;2024-01-30T06:32:43;0.70;99.90
68385;DHT22;55336;43.062;25.626;2024-01-30T06:35:09;0.70;99.90
68385;DHT22;55336;43.062;25.626;2024-01-30T06:37:36;0.80;99.90
68385;DHT22;55336;43.062;25.626;2024-01-30T06:40:02;0.80;99.90
68385;DHT22;55336;43.062;25.626;2024-01-30T06:42:30;0.80;99.90
68385;DHT22;55336;43.062;25.626;2024-01-30T06:44:55;0.80;99.90
68385;DHT22;55336;43.062;25.626;2024-01-30T06:47:21;0.80;99.90
68385;DHT22;55336;43.062;25.626;2024-01-30T06:49:47;0.90;99.90
68385;DHT22;55336;43.062;25.626;2024-01-30T06:52:12;0.90;99.90
68385;DHT22;55336;43.062;25.626;2024-01-30T06:54:38;0.90;99.90
68385;DHT22;55336;43.062;25.626;2024-01-30T06:57:05;1.00;99.90
68385;DHT22;55336;43.062;25.626;2024-01-30T06:59:34;1.00;99.90
68385;DHT22;55336;43.062;25.626;2024-01-30T07:02:00;1.10;99.90
68385;DHT22;55336;43.062;25.626;2024-01-30T07:04:25;1.10;99.90
68385;DHT22;55336;43.062;25.626;2024-01-30T07:06:51;1.20;99.90
68385;DHT22;55336;43.062;25.626;2024-01-30T07:09:18;1.10;99.90
68385;DHT22;55336;43.062;25.626;2024-01-30T07:11:44;1.10;99.90
68385;DHT22;55336;43.062;25.626;2024-01-30T07:14:10;1.10;99.90
68385;DHT22;55336;43.062;25.626;2024-01-30T07:16:50;1.20;99.90
68385;DHT22;55336;43.062;25.626;2024-01-30T07:19:16;1.20;99.90
68385;DHT22;55336;43.062;25.626;2024-01-30T07:21:42;1.30;99.90
68385;DHT22;55336;43.062;25.626;2024-01-30T07:24:08;1.20;99.90
68385;DHT22;55336;43.062;25.626;2024-01-30T07:26:33;1.30;99.90
68385;DHT22;55336;43.062;25.626;2024-01-30T07:29:01;1.50;99.90
68385;DHT22;55336;43.062;25.626;2024-01-30T07:31:26;1.50;99.90
68385;DHT22;55336;43.062;25.626;2024-01-30T07:33:52;1.60;99.90
68385;DHT22;55336;43.062;25.626;2024-01-30T07:36:18;1.30;99.90
68385;DHT22;55336;43.062;25.626;2024-01-30T07:38:44;1.70;99.90
68385;DHT22;55336;43.062;25.626;2024-01-30T07:41:10;1.60;99.90
68385;DHT22;55336;43.062;25.626;2024-01-30T07:43:37;1.70;99.90
68385;DHT22;55336;43.062;25.626;2024-01-30T07:46:03;1.80;99.90
68385;DHT22;55336;43.062;25.626;2024-01-30T07:48:29;1.80;99.90
68385;DHT22;55336;43.062;25.626;2024-01-30T07:50:55;1.90;99.90
68385;DHT22;55336;43.062;25.626;2024-01-30T07:53:20;1.90;99.90
68385;DHT22;55336;43.062;25.626;2024-01-30T07:55:46;2.00;99.90
68385;DHT22;55336;43.062;25.626;2024-01-30T07:58:12;1.90;99.90
68385;DHT22;55336;43.062;25.626;2024-01-30T08:00:38;1.90;99.90
68385;DHT22;55336;43.062;25.626;2024-01-30T08:03:06;1.70;99.90
68385;DHT22;55336;43.062;25.626;2024-01-30T08:05:32;1.90;99.90
68385;DHT22;55336;43.062;25.626;2024-01-30T08:08:01;2.00;99.90
68385;DHT22;55336;43.062;25.626;2024-01-30T08:10:26;2.00;99.90
68385;DHT22;55336;43.062;25.626;2024-01-30T08:12:52;2.00;99.90
68385;DHT22;55336;43.062;25.626;2024-01-30T08:15:18;2.00;99.90
68385;DHT22;55336;43.062;25.626;2024-01-30T08:17:44;2.20;99.90
68385;DHT22;55336;43.062;25.626;2024-01-30T08:20:10;2.20;99.90
68385;DHT22;55336;43.062;25.626;2024-01-30T08:22:40;2.10;99.90
68385;DHT22;55336;43.062;25.626;2024-01-30T08:25:06;2.10;99.90
68385;DHT22;55336;43.062;25.626;2024-01-30T08:27:32;2.00;99.90
68385;DHT22;55336;43.062;25.626;2024-01-30T08:29:58;1.80;99.90
68385;DHT22;55336;43.062;25.626;2024-01-30T08:32:24;1.90;99.90
68385;DHT22;55336;43.062;25.626;2024-01-30T08:34:49;1.90;99.90
68385;DHT22;55336;43.062;25.626;2024-01-30T08:37:15;1.80;99.90
68385;DHT22;55336;43.062;25.626;2024-01-30T08:39:42;1.90;99.90
68385;DHT22;55336;43.062;25.626;2024-01-30T08:42:08;2.00;99.90
68385;DHT22;55336;43.062;25.626;2024-01-30T08:44:33;2.10;99.90
68385;DHT22;55336;43.062;25.626;2024-01-30T08:46:59;2.10;99.90
68385;DHT22;55336;43.062;25.626;2024-01-30T08:49:25;2.00;99.90
68385;DHT22;55336;43.062;25.626;2024-01-30T08:51:51;2.00;99.90
68385;DHT22;55336;43.062;25.626;2024-01-30T08:54:17;2.10;99.90
68385;DHT22;55336;43.062;25.626;2024-01-30T08:56:43;2.00;99.90
68385;DHT22;55336;43.062;25.626;2024-01-30T08:59:08;2.00;99.90
68385;DHT22;55336;43.062;25.626;2024-01-30T09:01:34;1.90;99.90
68385;DHT22;55336;43.062;25.626;2024-01-30T09:04:00;2.00;99.90
68385;DHT22;55336;43.062;25.626;2024-01-30T09:06:26;2.00;99.90
68385;DHT22;55336;43.062;25.626;2024-01-30T09:08:53;2.00;99.90
68385;DHT22;55336;43.062;25.626;2024-01-30T09:11:19;2.00;99.90
68385;DHT22;55336;43.062;25.626;2024-01-30T09:13:45;1.50;99.90
68385;DHT22;55336;43.062;25.626;2024-01-30T09:16:10;1.70;99.90
68385;DHT22;55336;43.062;25.626;2024-01-30T09:18:36;1.90;99.90
68385;DHT22;55336;43.062;25.626;2024-01-30T09:21:02;2.00;99.90
68385;DHT22;55336;43.062;25.626;2024-01-30T09:23:28;2.10;99.90
68385;DHT22;55336;43.062;25.626;2024-01-30T09:25:53;2.20;99.90
68385;DHT22;55336;43.062;25.626;2024-01-30T09:28:19;2.20;99.90
68385;DHT22;55336;43.062;25.626;2024-01-30T09:30:45;2.00;99.90
68385;DHT22;55336;43.062;25.626;2024-01-30T09:33:11;2.20;99.90
68385;DHT22;55336;43.062;25.626;2024-01-30T09:35:36;2.40;99.90
68385;DHT22;55336;43.062;25.626;2024-01-30T09:38:02;2.30;99.90
68385;DHT22;55336;43.062;25.626;2024-01-30T09:40:28;2.30;99.90
68385;DHT22;55336;43.062;25.626;2024-01-30T09:42:54;2.50;99.90
68385;DHT22;55336;43.062;25.626;2024-01-30T09:45:28;2.50;99.90
68385;DHT22;55336;43.062;25.626;2024-01-30T09:47:55;2.60;99.90
68385;DHT22;55336;43.062;25.626;2024-01-30T09:50:21;2.60;99.90
68385;DHT22;55336;43.062;25.626;2024-01-30T09:52:49;2.30;99.90
68385;DHT22;55336;43.062;25.626;2024-01-30T09:55:15;2.30;99.90
68385;DHT22;55336;43.062;25.626;2024-01-30T09:57:41;2.30;99.90
68385;DHT22;55336;43.062;25.626;2024-01-30T10:00:07;2.40;99.90
68385;DHT22;55336;43.062;25.626;2024-01-30T10:02:34;2.50;99.90
68385;DHT22;55336;43.062;25.626;2024-01-30T10:05:00;2.60;99.90
68385;DHT22;55336;43.062;25.626;2024-01-30T10:07:26;2.60;99.90
68385;DHT22;55336;43.062;25.626;2024-01-30T10:09:52;2.70;99.90
68385;DHT22;55336;43.062;25.626;2024-01-30T10:12:18;2.70;99.90
68385;DHT22;55336;43.062;25.626;2024-01-30T10:14:44;2.50;99.90
68385;DHT22;55336;43.062;25.626;2024-01-30T10:17:10;2.30;99.90
68385;DHT22;55336;43.062;25.626;2024-01-30T10:19:40;2.40;99.90
68385;DHT22;55336;43.062;25.626;2024-01-30T10:22:06;2.50;99.90
68385;DHT22;55336;43.062;25.626;2024-01-30T10:24:35;2.40;99.90
68385;DHT22;55336;43.062;25.626;2024-01-30T10:27:01;2.60;99.90
68385;DHT22;55336;43.062;25.626;2024-01-30T10:29:27;2.70;99.90
68385;DHT22;55336;43.062;25.626;2024-01-30T10:32:02;2.70;99.90
68385;DHT22;55336;43.062;25.626;2024-01-30T10:34:29;3.00;99.90
68385;DHT22;55336;43.062;25.626;2024-01-30T10:36:59;3.10;99.90
68385;DHT22;55336;43.062;25.626;2024-01-30T10:39:25;3.10;99.90
68385;DHT22;55336;43.062;25.626;2024-01-30T10:42:18;3.20;99.90
68385;DHT22;55336;43.062;25.626;2024-01-30T10:44:57;3.20;99.90
68385;DHT22;55336;43.062;25.626;2024-01-30T10:47:28;3.30;99.90
68385;DHT22;55336;43.062;25.626;2024-01-30T10:49:54;3.40;99.90
68385;DHT22;55336;43.062;25.626;2024-01-30T10:52:20;3.30;99.90
68385;DHT22;55336;43.062;25.626;2024-01-30T10:54:51;3.20;99.90
68385;DHT22;55336;43.062;25.626;2024-01-30T10:57:17;3.30;99.90
68385;DHT22;55336;43.062;25.626;2024-01-30T11:00:05;3.20;99.90
68385;DHT22;55336;43.062;25.626;2024-01-30T11:02:38;3.30;99.90
68385;DHT22;55336;43.062;25.626;2024-01-30T11:05:04;3.30;99.90
68385;DHT22;55336;43.062;25.626;2024-01-30T11:07:30;3.20;99.90
68385;DHT22;55336;43.062;25.626;2024-01-30T11:12:29;2.90;99.90
68385;DHT22;55336;43.062;25.626;2024-01-30T11:15:01;3.00;99.90
68385;DHT22;55336;43.062;25.626;2024-01-30T11:17:39;2.80;99.90
68385;DHT22;55336;43.062;25.626;2024-01-30T11:20:05;3.00;99.90
68385;DHT22;55336;43.062;25.626;2024-01-30T11:22:31;2.80;99.90
68385;DHT22;55336;43.062;25.626;2024-01-30T11:24:56;2.90;99.90
68385;DHT22;55336;43.062;25.626;2024-01-30T11:27:22;2.70;99.90
68385;DHT22;55336;43.062;25.626;2024-01-30T11:29:50;2.70;99.90
68385;DHT22;55336;43.062;25.626;2024-01-30T11:32:21;2.80;99.90
68385;DHT22;55336;43.062;25.626;2024-01-30T11:34:48;3.00;99.90
68385;DHT22;55336;43.062;25.626;2024-01-30T11:37:14;3.00;99.90
68385;DHT22;55336;43.062;25.626;2024-01-30T11:39:40;3.00;99.90
68385;DHT22;55336;43.062;25.626;2024-01-30T11:42:07;2.90;99.90
68385;DHT22;55336;43.062;25.626;2024-01-30T11:44:34;2.80;99.90
68385;DHT22;55336;43.062;25.626;2024-01-30T11:47:00;2.80;99.90
68385;DHT22;55336;43.062;25.626;2024-01-30T11:49:25;2.90;99.90
68385;DHT22;55336;43.062;25.626;2024-01-30T11:51:51;3.00;99.90
68385;DHT22;55336;43.062;25.626;2024-01-30T11:54:18;2.90;99.90
68385;DHT22;55336;43.062;25.626;2024-01-30T11:56:44;3.00;99.90
68385;DHT22;55336;43.062;25.626;2024-01-30T11:59:10;2.90;99.90
68385;DHT22;55336;43.062;25.626;2024-01-30T12:01:35;3.00;99.90
68385;DHT22;55336;43.062;25.626;2024-01-30T12:04:01;3.00;99.90
68385;DHT22;55336;43.062;25.626;2024-01-30T12:06:28;3.00;99.90
68385;DHT22;55336;43.062;25.626;2024-01-30T12:08:58;3.10;99.90
68385;DHT22;55336;43.062;25.626;2024-01-30T12:11:24;3.20;99.90
68385;DHT22;55336;43.062;25.626;2024-01-30T12:13:53;3.10;99.90
68385;DHT22;55336;43.062;25.626;2024-01-30T12:16:19;3.10;99.90
68385;DHT22;55336;43.062;25.626;2024-01-30T12:18:46;3.00;99.90
68385;DHT22;55336;43.062;25.626;2024-01-30T12:21:11;3.00;99.90
68385;DHT22;55336;43.062;25.626;2024-01-30T12:23:37;3.00;99.90
68385;DHT22;55336;43.062;25.626;2024-01-30T12:26:03;3.00;99.90
68385;DHT22;55336;43.062;25.626;2024-01-30T12:28:32;3.10;99.90
68385;DHT22;55336;43.062;25.626;2024-01-30T12:31:05;3.10;99.90
68385;DHT22;55336;43.062;25.626;2024-01-30T12:33:31;3.10;99.90
68385;DHT22;55336;43.062;25.626;2024-01-30T12:35:57;3.10;99.90
68385;DHT22;55336;43.062;25.626;2024-01-30T12:38:24;3.10;99.90
68385;DHT22;55336;43.062;25.626;2024-01-30T12:40:52;3.20;99.90
68385;DHT22;55336;43.062;25.626;2024-01-30T12:43:19;3.30;99.90
68385;DHT22;55336;43.062;25.626;2024-01-30T12:45:45;3.30;99.90
68385;DHT22;55336;43.062;25.626;2024-01-30T12:48:12;3.30;99.90
68385;DHT22;55336;43.062;25.626;2024-01-30T12:50:37;3.30;99.90
68385;DHT22;55336;43.062;25.626;2024-01-30T12:53:03;3.40;99.90
68385;DHT22;55336;43.062;25.626;2024-01-30T12:55:30;3.50;99.90
68385;DHT22;55336;43.062;25.626;2024-01-30T12:57:56;3.60;99.90
68385;DHT22;55336;43.062;25.626;2024-01-30T13:00:22;3.70;99.90
68385;DHT22;55336;43.062;25.626;2024-01-30T13:02:48;3.80;99.90
68385;DHT22;55336;43.062;25.626;2024-01-30T13:05:14;3.70;99.90
68385;DHT22;55336;43.062;25.626;2024-01-30T13:07:41;3.70;99.90
68385;DHT22;55336;43.062;25.626;2024-01-30T13:10:16;3.70;99.90
68385;DHT22;55336;43.062;25.626;2024-01-30T13:12:45;3.80;99.90
68385;DHT22;55336;43.062;25.626;2024-01-30T13:15:11;3.80;99.90
68385;DHT22;55336;43.062;25.626;2024-01-30T13:17:37;3.80;99.90
68385;DHT22;55336;43.062;25.626;2024-01-30T13:20:03;3.70;99.90
68385;DHT22;55336;43.062;25.626;2024-01-30T13:22:29;3.90;99.90
68385;DHT22;55336;43.062;25.626;2024-01-30T13:24:55;4.00;99.90
68385;DHT22;55336;43.062;25.626;2024-01-30T13:27:21;3.90;99.90
68385;DHT22;55336;43.062;25.626;2024-01-30T13:29:50;4.00;99.90
68385;DHT22;55336;43.062;25.626;2024-01-30T13:32:16;4.00;99.90
68385;DHT22;55336;43.062;25.626;2024-01-30T13:34:42;3.80;99.90
68385;DHT22;55336;43.062;25.626;2024-01-30T13:37:11;3.90;99.90
68385;DHT22;55336;43.062;25.626;2024-01-30T13:39:39;3.90;99.90
68385;DHT22;55336;43.062;25.626;2024-01-30T13:42:05;3.90;99.90
68385;DHT22;55336;43.062;25.626;2024-01-30T13:44:31;4.00;99.90
68385;DHT22;55336;43.062;25.626;2024-01-30T13:46:59;4.00;99.90
68385;DHT22;55336;43.062;25.626;2024-01-30T13:49:25;4.00;99.90
68385;DHT22;55336;43.062;25.626;2024-01-30T13:51:52;3.80;99.90
68385;DHT22;55336;43.062;25.626;2024-01-30T13:54:20;3.90;99.90
68385;DHT22;55336;43.062;25.626;2024-01-30T13:56:46;3.80;99.90
68385;DHT22;55336;43.062;25.626;2024-01-30T13:59:12;3.70;99.90
68385;DHT22;55336;43.062;25.626;2024-01-30T14:01:42;3.80;99.90
68385;DHT22;55336;43.062;25.626;2024-01-30T14:04:08;3.80;99.90
68385;DHT22;55336;43.062;25.626;2024-01-30T14:06:34;3.80;99.90
68385;DHT22;55336;43.062;25.626;2024-01-30T14:09:00;3.90;99.90
68385;DHT22;55336;43.062;25.626;2024-01-30T14:11:26;4.00;99.90
68385;DHT22;55336;43.062;25.626;2024-01-30T14:13:51;3.90;99.90
68385;DHT22;55336;43.062;25.626;2024-01-30T14:16:17;3.90;99.90
68385;DHT22;55336;43.062;25.626;2024-01-30T14:18:45;3.90;99.90
68385;DHT22;55336;43.062;25.626;2024-01-30T14:21:10;3.70;99.90
68385;DHT22;55336;43.062;25.626;2024-01-30T14:23:39;3.60;99.90
68385;DHT22;55336;43.062;25.626;2024-01-30T14:26:05;3.50;99.90
68385;DHT22;55336;43.062;25.626;2024-01-30T14:28:33;3.40;99.90
68385;DHT22;55336;43.062;25.626;2024-01-30T14:31:02;3.40;99.90
68385;DHT22;55336;43.062;25.626;2024-01-30T14:33:31;3.30;99.90
68385;DHT22;55336;43.062;25.626;2024-01-30T14:42:15;3.10;99.90
68385;DHT22;55336;43.062;25.626;2024-01-30T14:44:41;3.00;99.90
68385;DHT22;55336;43.062;25.626;2024-01-30T14:47:07;3.00;99.90
68385;DHT22;55336;43.062;25.626;2024-01-30T14:49:33;3.00;99.90
68385;DHT22;55336;43.062;25.626;2024-01-30T14:51:59;2.90;99.90
68385;DHT22;55336;43.062;25.626;2024-01-30T14:54:26;2.90;99.90
68385;DHT22;55336;43.062;25.626;2024-01-30T14:56:52;2.80;99.90
68385;DHT22;55336;43.062;25.626;2024-01-30T14:59:18;2.80;99.90
68385;DHT22;55336;43.062;25.626;2024-01-30T15:01:44;2.80;99.90
68385;DHT22;55336;43.062;25.626;2024-01-30T15:04:10;2.80;99.90
68385;DHT22;55336;43.062;25.626;2024-01-30T15:06:37;2.70;99.90
68385;DHT22;55336;43.062;25.626;2024-01-30T15:09:03;2.70;99.90
68385;DHT22;55336;43.062;25.626;2024-01-30T15:11:29;2.60;99.90
68385;DHT22;55336;43.062;25.626;2024-01-30T15:13:54;2.60;99.90
68385;DHT22;55336;43.062;25.626;2024-01-30T15:16:20;2.60;99.90
68385;DHT22;55336;43.062;25.626;2024-01-30T15:18:46;2.60;99.90
68385;DHT22;55336;43.062;25.626;2024-01-30T15:21:12;2.50;99.90
68385;DHT22;55336;43.062;25.626;2024-01-30T15:23:37;2.50;99.90
68385;DHT22;55336;43.062;25.626;2024-01-30T15:26:03;2.50;99.90
68385;DHT22;55336;43.062;25.626;2024-01-30T15:28:36;2.50;99.90
68385;DHT22;55336;43.062;25.626;2024-01-30T15:31:02;2.50;99.90
68385;DHT22;55336;43.062;25.626;2024-01-30T15:33:28;2.50;99.90